createdAt,value
2024-05-09T00:01:04.033Z,102210.06
2024-05-09T00:03:10.810Z,102207.72
2024-05-09T00:05:13.893Z,102210.88
2024-05-09T00:07:18.431Z,102212.47
2024-05-09T00:09:22.930Z,102208.59
2024-05-09T00:11:27.482Z,102187.75
2024-05-09T00:13:31.970Z,102185.44
2024-05-09T00:15:37.113Z,102191.63
2024-05-09T00:17:44.573Z,102197.09
2024-05-09T00:19:49.479Z,102171.53
2024-05-09T00:21:54.066Z,102186.25
2024-05-09T00:23:58.937Z,102198.63
2024-05-09T00:26:03.396Z,102194.00
2024-05-09T00:28:08.677Z,102203.69
2024-05-09T00:30:17.430Z,102187.44
2024-05-09T00:32:26.052Z,102191.34
2024-05-09T00:34:33.564Z,102201.00
2024-05-09T00:36:39.567Z,102197.13
2024-05-09T00:38:45.492Z,102204.88
2024-05-09T00:40:50.081Z,102202.16
2024-05-09T00:42:54.575Z,102199.06
2024-05-09T00:44:59.263Z,102196.34
2024-05-09T00:47:03.714Z,102201.00
2024-05-09T00:49:08.416Z,102201.78
2024-05-09T00:51:15.516Z,102190.94
2024-05-09T00:53:21.135Z,102174.31
2024-05-09T00:55:26.358Z,102197.94
2024-05-09T00:57:30.971Z,102192.13
2024-05-09T00:59:36.248Z,102188.66
2024-05-09T01:01:40.939Z,102187.88
2024-05-09T01:03:46.630Z,102189.78
2024-05-09T01:05:52.767Z,102195.22
2024-05-09T01:08:00.030Z,102198.69
2024-05-09T01:10:01.900Z,102196.00
2024-05-09T01:12:07.207Z,102209.50
2024-05-09T01:14:11.698Z,102199.50
2024-05-09T01:16:16.701Z,102184.81
2024-05-09T01:18:21.523Z,102203.72
2024-05-09T01:20:37.138Z,102170.44
2024-05-09T01:22:47.461Z,102205.28
2024-05-09T01:24:54.664Z,102205.25
2024-05-09T01:26:59.109Z,102190.91
2024-05-09T01:29:03.564Z,102195.97
2024-05-09T01:31:08.284Z,102195.56
2024-05-09T01:33:13.427Z,102165.75
2024-05-09T01:35:23.191Z,102212.59
2024-05-09T01:37:27.644Z,102190.53
2024-05-09T01:39:32.315Z,102198.25
2024-05-09T01:41:39.427Z,102206.03
2024-05-09T01:43:43.958Z,102188.59
2024-05-09T01:45:48.417Z,102192.47
2024-05-09T01:47:53.152Z,102179.31
2024-05-09T01:49:57.844Z,102197.84
2024-05-09T01:52:02.372Z,102196.31
2024-05-09T01:54:07.009Z,102188.19
2024-05-09T01:56:12.665Z,102201.72
2024-05-09T01:58:20.605Z,102204.06
2024-05-09T02:00:36.655Z,102204.44
2024-05-09T02:02:47.436Z,102203.25
2024-05-09T02:04:52.475Z,102169.56
2024-05-09T02:06:57.197Z,102208.28
2024-05-09T02:09:01.741Z,102203.28
2024-05-09T02:11:06.413Z,102193.94
2024-05-09T02:13:10.822Z,102205.16
2024-05-09T02:15:18.244Z,102193.53
2024-05-09T02:17:23.040Z,102204.31
2024-05-09T02:19:27.750Z,102200.09
2024-05-09T02:21:34.179Z,102205.09
2024-05-09T02:23:38.785Z,102204.69
2024-05-09T02:25:44.155Z,102200.81
2024-05-09T02:27:48.655Z,102199.59
2024-05-09T02:29:53.081Z,102203.47
2024-05-09T02:32:00.320Z,102204.63
2024-05-09T02:34:02.444Z,102197.66
2024-05-09T02:36:07.766Z,102193.47
2024-05-09T02:38:10.026Z,102186.88
2024-05-09T02:40:18.237Z,102188.47
2024-05-09T02:42:23.582Z,102190.03
2024-05-09T02:44:28.055Z,102187.25
2024-05-09T02:46:29.902Z,102189.53
2024-05-09T02:48:37.064Z,102162.44
2024-05-09T02:50:40.570Z,102187.22
2024-05-09T02:52:45.353Z,102184.84
2024-05-09T02:54:47.163Z,102167.03
2024-05-09T02:56:51.735Z,102166.66
2024-05-09T02:58:53.616Z,102181.34
2024-05-09T03:00:58.142Z,102193.25
2024-05-09T03:03:00.210Z,102157.69
2024-05-09T03:05:10.460Z,102185.19
2024-05-09T03:07:12.322Z,102168.13
2024-05-09T03:09:16.878Z,102163.06
2024-05-09T03:11:22.516Z,102165.03
2024-05-09T03:13:27.336Z,102165.72
2024-05-09T03:15:32.256Z,102180.78
2024-05-09T03:17:37.238Z,102186.22
2024-05-09T03:19:39.192Z,102187.38
2024-05-09T03:21:46.298Z,102177.66
2024-05-09T03:23:48.243Z,102188.81
2024-05-09T03:25:54.294Z,102193.84
2024-05-09T03:27:56.586Z,102187.69
2024-05-09T03:30:01.413Z,102181.06
2024-05-09T03:32:03.655Z,102193.44
2024-05-09T03:34:08.158Z,102186.91
2024-05-09T03:36:11.399Z,102168.66
2024-05-09T03:38:18.917Z,102203.13
2024-05-09T03:40:24.007Z,102185.25
2024-05-09T03:42:31.409Z,102207.03
2024-05-09T03:44:33.314Z,102169.88
2024-05-09T03:46:40.408Z,102201.59
2024-05-09T03:48:42.363Z,102197.38
2024-05-09T03:50:47.135Z,102194.72
2024-05-09T03:52:49.303Z,102192.44
2024-05-09T03:54:56.753Z,102204.34
2024-05-09T03:56:58.624Z,102160.56
2024-05-09T03:59:03.163Z,102176.50
2024-05-09T04:01:05.308Z,102188.59
2024-05-09T04:03:12.424Z,102185.50
2024-05-09T04:05:15.287Z,102187.50
2024-05-09T04:07:19.866Z,102188.63
2024-05-09T04:09:21.785Z,102187.06
2024-05-09T04:11:29.268Z,102155.31
2024-05-09T04:13:31.239Z,102202.22
2024-05-09T04:15:36.373Z,102199.44
2024-05-09T04:17:39.423Z,102184.72
2024-05-09T04:19:44.164Z,102181.63
2024-05-09T04:21:46.108Z,102175.81
2024-05-09T04:23:50.606Z,102196.31
2024-05-09T04:25:52.601Z,102192.47
2024-05-09T04:27:59.728Z,102205.28
2024-05-09T04:30:01.900Z,102202.22
2024-05-09T04:32:09.028Z,102206.56
2024-05-09T04:34:11.175Z,102198.44
2024-05-09T04:36:18.513Z,102174.84
2024-05-09T04:38:21.058Z,102203.06
2024-05-09T04:40:32.961Z,102189.16
2024-05-09T04:42:40.645Z,102203.53
2024-05-09T04:44:48.513Z,102211.25
2024-05-09T04:46:50.435Z,102186.88
2024-05-09T04:48:55.738Z,102207.78
2024-05-09T04:50:58.522Z,102192.06
2024-05-09T04:53:03.595Z,102193.66
2024-05-09T04:55:06.428Z,102223.38
2024-05-09T04:57:08.544Z,102215.22
2024-05-09T04:59:13.137Z,102213.59
2024-05-09T05:01:17.981Z,102226.22
2024-05-09T05:03:23.143Z,102200.97
2024-05-09T05:05:25.288Z,102218.94
2024-05-09T05:07:29.772Z,102204.47
2024-05-09T05:09:31.962Z,102225.84
2024-05-09T05:11:36.888Z,102235.66
2024-05-09T05:13:41.333Z,102235.31
2024-05-09T05:15:43.882Z,102224.69
2024-05-09T05:17:51.409Z,102232.28
2024-05-09T05:19:54.229Z,102233.38
2024-05-09T05:21:58.850Z,102218.59
2024-05-09T05:24:03.714Z,102234.63
2024-05-09T05:26:08.285Z,102215.88
2024-05-09T05:28:10.432Z,102210.25
2024-05-09T05:30:21.255Z,102210.63
2024-05-09T05:32:27.390Z,102230.97
2024-05-09T05:34:35.201Z,102236.81
2024-05-09T05:36:38.468Z,102231.44
2024-05-09T05:38:45.342Z,102228.50
2024-05-09T05:40:49.890Z,102222.09
2024-05-09T05:42:54.844Z,102232.88
2024-05-09T05:44:56.872Z,102240.66
2024-05-09T05:47:02.018Z,102227.50
2024-05-09T05:49:04.615Z,102239.25
2024-05-09T05:51:14.300Z,102226.13
2024-05-09T05:53:16.604Z,102236.84
2024-05-09T05:55:22.509Z,102231.63
2024-05-09T05:57:24.569Z,102226.47
2024-05-09T05:59:30.943Z,102226.31
2024-05-09T06:01:32.933Z,102214.28
2024-05-09T06:03:37.818Z,102225.47
2024-05-09T06:05:40.949Z,102212.06
2024-05-09T06:07:48.455Z,102239.72
2024-05-09T06:09:50.608Z,102202.34
2024-05-09T06:11:55.537Z,102240.53
2024-05-09T06:13:57.921Z,102237.09
2024-05-09T06:16:04.887Z,102227.84
2024-05-09T06:18:11.141Z,102231.47
2024-05-09T06:20:23.870Z,102233.41
2024-05-09T06:22:33.605Z,102225.31
2024-05-09T06:24:41.175Z,102229.28
2024-05-09T06:26:46.394Z,102220.38
2024-05-09T06:28:52.150Z,102224.06
2024-05-09T06:30:54.326Z,102214.34
2024-05-09T06:32:58.978Z,102227.78
2024-05-09T06:35:00.945Z,102214.88
2024-05-09T06:37:06.214Z,102228.31
2024-05-09T06:39:18.829Z,102220.25
2024-05-09T06:41:27.904Z,102222.94
2024-05-09T06:43:30.001Z,102230.00
2024-05-09T06:45:35.588Z,102225.06
2024-05-09T06:47:37.660Z,102215.44
2024-05-09T06:49:43.609Z,102217.13
2024-05-09T06:51:47.038Z,102217.22
2024-05-09T06:53:54.216Z,102221.06
2024-05-09T06:55:56.499Z,102219.25
2024-05-09T06:58:05.081Z,102226.88
2024-05-09T07:00:15.478Z,102231.13
2024-05-09T07:02:24.535Z,102217.69
2024-05-09T07:04:26.737Z,102204.41
2024-05-09T07:06:31.729Z,102180.28
2024-05-09T07:08:34.085Z,102181.38
2024-05-09T07:10:39.864Z,102207.22
2024-05-09T07:12:41.878Z,102199.09
2024-05-09T07:14:49.106Z,102206.56
2024-05-09T07:16:51.537Z,102214.53
2024-05-09T07:18:57.791Z,102206.28
2024-05-09T07:21:01.048Z,102200.94
2024-05-09T07:23:09.294Z,102206.75
2024-05-09T07:25:11.195Z,102208.59
2024-05-09T07:27:16.411Z,102181.13
2024-05-09T07:29:18.564Z,102189.44
2024-05-09T07:31:28.282Z,102201.38
2024-05-09T07:33:31.862Z,102205.59
2024-05-09T07:35:36.796Z,102202.88
2024-05-09T07:37:40.973Z,102193.69
2024-05-09T07:39:46.058Z,102181.84
2024-05-09T07:41:48.025Z,102201.09
2024-05-09T07:43:53.046Z,102201.53
2024-05-09T07:53:33.921Z,102203.75
2024-05-09T07:55:01.918Z,102193.69
2024-05-09T07:57:07.486Z,102213.81
2024-05-09T07:59:09.413Z,102198.31
2024-05-09T08:01:14.316Z,102197.09
2024-05-09T08:03:21.579Z,102202.00
2024-05-09T08:05:26.416Z,102202.31
2024-05-09T08:07:31.815Z,102203.09
2024-05-09T08:09:38.679Z,102187.66
2024-05-09T08:11:40.678Z,102175.44
2024-05-09T08:13:45.506Z,102178.75
2024-05-09T08:15:47.376Z,102194.47
2024-05-09T08:17:52.752Z,102199.75
2024-05-09T08:19:58.836Z,102177.69
2024-05-09T08:22:07.143Z,102115.72
2024-05-09T08:24:10.501Z,102159.38
2024-05-09T08:26:19.417Z,102203.53
2024-05-09T08:28:21.520Z,102169.28
2024-05-09T08:30:33.400Z,102159.66
2024-05-09T08:32:42.901Z,102197.22
2024-05-09T08:34:48.358Z,102190.19
2024-05-09T08:36:57.552Z,102187.66
2024-05-09T08:39:03.466Z,102182.31
2024-05-09T08:41:06.582Z,102195.38
2024-05-09T08:43:13.027Z,102154.97
2024-05-09T08:45:17.599Z,102182.25
2024-05-09T08:47:26.805Z,102144.41
2024-05-09T08:49:29.715Z,102188.03
2024-05-09T08:51:35.238Z,102166.72
2024-05-09T08:53:44.720Z,102149.56
2024-05-09T08:55:51.016Z,102182.53
2024-05-09T08:57:53.569Z,102159.06
2024-05-09T09:00:00.690Z,102194.94
2024-05-09T09:02:03.865Z,102172.31
2024-05-09T09:04:09.226Z,102156.28
2024-05-09T09:06:14.630Z,102185.06
2024-05-09T09:08:19.416Z,102178.47
2024-05-09T09:10:29.951Z,102165.03
2024-05-09T09:12:37.094Z,102167.63
2024-05-09T09:14:39.170Z,102147.19
2024-05-09T09:16:46.335Z,102168.13
2024-05-09T09:18:52.483Z,102151.16
2024-05-09T09:20:58.790Z,102142.31
2024-05-09T09:23:00.681Z,102141.53
2024-05-09T09:25:05.946Z,102172.09
2024-05-09T09:27:14.824Z,102151.16
2024-05-09T09:29:23.358Z,102167.91
2024-05-09T09:31:27.387Z,102158.56
2024-05-09T09:33:33.239Z,102146.88
2024-05-09T09:35:36.841Z,102149.34
2024-05-09T09:37:43.201Z,102168.25
2024-05-09T09:39:49.123Z,102164.63
2024-05-09T09:41:55.050Z,102144.91
2024-05-09T09:44:01.144Z,102152.25
2024-05-09T09:46:09.718Z,102169.94
2024-05-09T09:48:15.329Z,102166.28
2024-05-09T09:50:27.551Z,102157.59
2024-05-09T09:52:37.648Z,102148.22
2024-05-09T09:54:43.950Z,102160.91
2024-05-09T09:56:51.234Z,102163.16
2024-05-09T09:58:56.152Z,102165.81
2024-05-09T10:01:00.999Z,102132.97
2024-05-09T10:03:17.144Z,102159.22
2024-05-09T10:05:24.205Z,102106.16
2024-05-09T10:07:39.894Z,102137.88
2024-05-09T10:09:43.703Z,102129.16
2024-05-09T10:11:52.353Z,102149.44
2024-05-09T10:13:57.350Z,102149.03
2024-05-09T10:16:13.753Z,102150.16
2024-05-09T10:18:16.844Z,102131.63
2024-05-09T10:20:28.165Z,102150.38
2024-05-09T10:22:34.631Z,102151.16
2024-05-09T10:24:50.868Z,102152.50
2024-05-09T10:26:54.134Z,102145.44
2024-05-09T10:28:58.779Z,102118.28
2024-05-09T10:31:16.361Z,102150.34
2024-05-09T10:33:20.824Z,102134.66
2024-05-09T10:35:26.855Z,102152.06
2024-05-09T10:37:30.678Z,102138.59
2024-05-09T10:39:38.322Z,102141.84
2024-05-09T10:41:41.035Z,102136.66
2024-05-09T10:43:45.958Z,102111.78
2024-05-09T10:45:49.476Z,102138.00
2024-05-09T10:48:00.895Z,102142.72
2024-05-09T10:50:07.880Z,102130.25
2024-05-09T10:52:17.692Z,102128.84
2024-05-09T10:54:19.651Z,102127.56
2024-05-09T10:56:24.664Z,102122.06
2024-05-09T10:58:27.522Z,102124.38
2024-05-09T11:00:36.387Z,102099.81
2024-05-09T11:02:38.970Z,102111.53
2024-05-09T11:04:50.201Z,102094.72
2024-05-09T11:06:52.315Z,102118.31
2024-05-09T11:08:57.551Z,102118.25
2024-05-09T11:11:00.249Z,102110.97
2024-05-09T11:13:05.209Z,102109.72
2024-05-09T11:15:07.389Z,102099.22
2024-05-09T11:17:13.997Z,102068.47
2024-05-09T11:19:18.523Z,102100.22
2024-05-09T11:21:28.780Z,102105.88
2024-05-09T11:23:31.752Z,102100.47
2024-05-09T11:25:37.990Z,102094.03
2024-05-09T11:27:44.095Z,102080.75
2024-05-09T11:29:49.133Z,102097.69
2024-05-09T11:31:51.204Z,102079.75
2024-05-09T11:33:57.048Z,102091.69
2024-05-09T11:35:59.427Z,102079.03
2024-05-09T11:38:04.650Z,102085.22
2024-05-09T11:40:17.084Z,102084.47
2024-05-09T11:42:26.800Z,102092.91
2024-05-09T11:44:31.375Z,102082.81
2024-05-09T11:46:33.809Z,102083.91
2024-05-09T11:48:38.994Z,102081.09
2024-05-09T11:50:41.138Z,102087.69
2024-05-09T11:52:45.973Z,102089.13
2024-05-09T11:54:50.793Z,102078.44
2024-05-09T11:56:56.475Z,102078.84
2024-05-09T11:58:59.076Z,102078.63
2024-05-09T12:01:04.572Z,102070.28
2024-05-09T12:03:06.882Z,102076.94
2024-05-09T12:05:10.120Z,102072.75
2024-05-09T12:07:15.351Z,102068.06
2024-05-09T12:09:17.569Z,102070.25
2024-05-09T12:11:24.942Z,102068.69
2024-05-09T12:13:28.064Z,102057.09
2024-05-09T12:15:36.588Z,102057.97
2024-05-09T12:17:39.702Z,102062.16
2024-05-09T12:19:46.144Z,102059.75
2024-05-09T12:21:48.664Z,102061.28
2024-05-09T12:23:54.908Z,102065.47
2024-05-09T12:25:57.158Z,102050.16
2024-05-09T12:28:06.273Z,102059.75
2024-05-09T12:30:14.193Z,102034.75
2024-05-09T12:32:22.083Z,102035.63
2024-05-09T12:34:24.517Z,102035.03
2024-05-09T12:36:29.894Z,102042.09
2024-05-09T12:38:32.356Z,102037.44
2024-05-09T12:40:39.102Z,102032.41
2024-05-09T12:42:41.982Z,102039.44
2024-05-09T12:44:49.563Z,102015.50
2024-05-09T12:46:53.937Z,102033.22
2024-05-09T12:49:01.398Z,102022.97
2024-05-09T12:51:06.438Z,102022.03
2024-05-09T12:53:11.799Z,102017.75
2024-05-09T12:55:14.219Z,102023.16
2024-05-09T12:57:18.807Z,102020.97
2024-05-09T12:59:21.130Z,102010.25
2024-05-09T13:01:32.291Z,101991.50
2024-05-09T13:03:35.378Z,102003.50
2024-05-09T13:05:41.665Z,102011.03
2024-05-09T13:07:44.061Z,101994.53
2024-05-09T13:09:46.340Z,101992.03
2024-05-09T13:11:51.464Z,101983.06
2024-05-09T13:13:53.527Z,101988.75
2024-05-09T13:15:58.391Z,101967.53
2024-05-09T13:18:06.496Z,101987.63
2024-05-09T13:20:19.042Z,101978.88
2024-05-09T13:22:28.818Z,101985.94
2024-05-09T13:24:36.586Z,101979.09
2024-05-09T13:26:42.044Z,101991.78
2024-05-09T13:28:53.515Z,101976.66
2024-05-09T13:30:59.477Z,101918.47
2024-05-09T13:33:08.289Z,101982.78
2024-05-09T13:35:10.781Z,101967.09
2024-05-09T13:37:15.399Z,101967.00
2024-05-09T13:39:21.892Z,101927.16
2024-05-09T13:41:27.318Z,101972.97
2024-05-09T13:43:29.732Z,101970.47
2024-05-09T13:45:34.766Z,101965.53
2024-05-09T13:47:36.776Z,101949.66
2024-05-09T13:49:44.120Z,101962.25
2024-05-09T13:51:46.115Z,101956.97
2024-05-09T13:53:54.750Z,101966.28
2024-05-09T13:55:58.930Z,101939.88
2024-05-09T13:58:04.224Z,101945.88
2024-05-09T14:00:15.072Z,101953.19
2024-05-09T14:02:28.035Z,101941.13
2024-05-09T14:04:30.407Z,101940.91
2024-05-09T14:06:44.128Z,101943.88
2024-05-09T14:08:47.428Z,101926.75
2024-05-09T14:10:52.810Z,101936.53
2024-05-09T14:12:55.133Z,101949.75
2024-05-09T14:14:59.778Z,101938.44
2024-05-09T14:17:03.203Z,101931.75
2024-05-09T14:19:08.536Z,101932.28
2024-05-09T14:21:11.329Z,101939.19
2024-05-09T14:23:20.269Z,101928.34
2024-05-09T14:25:24.328Z,101923.25
2024-05-09T14:27:32.234Z,101919.16
2024-05-09T14:29:35.498Z,101921.75
2024-05-09T14:31:40.335Z,101917.16
2024-05-09T14:33:45.257Z,101886.47
2024-05-09T14:35:50.631Z,101891.91
2024-05-09T14:37:52.632Z,101918.44
2024-05-09T14:40:00.047Z,101906.41
2024-05-09T14:42:02.730Z,101911.03
2024-05-09T14:44:12.700Z,101905.53
2024-05-09T14:46:15.015Z,101896.78
2024-05-09T14:48:20.467Z,101906.59
2024-05-09T14:50:28.186Z,101894.69
2024-05-09T14:52:39.915Z,101887.25
2024-05-09T14:54:42.723Z,101891.34
2024-05-09T14:56:51.619Z,101882.00
2024-05-09T14:58:55.266Z,101864.63
2024-05-09T15:01:01.091Z,101890.53
2024-05-09T15:03:05.062Z,101878.50
2024-05-09T15:05:11.792Z,101871.78
2024-05-09T15:07:15.700Z,101876.63
2024-05-09T15:09:20.379Z,101849.91
2024-05-09T15:11:24.336Z,101881.19
2024-05-09T15:13:31.715Z,101866.13
2024-05-09T15:15:34.167Z,101882.00
2024-05-09T15:17:39.413Z,101879.56
2024-05-09T15:19:42.148Z,101881.72
2024-05-09T15:21:44.869Z,101878.13
2024-05-09T15:23:49.360Z,101872.31
2024-05-09T15:25:51.698Z,101847.34
2024-05-09T15:27:56.536Z,101866.47
2024-05-09T15:30:05.633Z,101866.72
2024-05-09T15:32:20.298Z,101861.91
2024-05-09T15:34:25.182Z,101867.09
2024-05-09T15:36:30.104Z,101849.69
2024-05-09T15:38:33.781Z,101823.16
2024-05-09T15:40:40.784Z,101852.22
2024-05-09T15:42:43.774Z,101851.22
2024-05-09T15:44:53.783Z,101814.78
2024-05-09T15:46:58.781Z,101840.97
2024-05-09T15:49:03.735Z,101820.00
2024-05-09T15:51:07.400Z,101838.66
2024-05-09T15:53:10.381Z,101823.19
2024-05-09T15:55:17.422Z,101851.22
2024-05-09T15:57:19.690Z,101840.47
2024-05-09T15:59:24.210Z,101841.06
2024-05-09T16:01:27.608Z,101846.94
2024-05-09T16:03:35.120Z,101832.06
2024-05-09T16:05:38.207Z,101852.75
2024-05-09T16:07:43.472Z,101828.69
2024-05-09T16:09:47.823Z,101848.47
2024-05-09T16:11:52.938Z,101840.84
2024-05-09T16:13:56.111Z,101840.88
2024-05-09T16:16:01.996Z,101809.19
2024-05-09T16:18:04.420Z,101827.03
2024-05-09T16:20:14.968Z,101847.41
2024-05-09T16:22:22.836Z,101846.19
2024-05-09T16:24:24.691Z,101832.50
2024-05-09T16:26:29.345Z,101821.06
2024-05-09T16:28:31.422Z,101838.47
2024-05-09T16:30:36.665Z,101830.50
2024-05-09T16:32:46.180Z,101842.47
2024-05-09T16:34:51.080Z,101838.03
2024-05-09T16:36:55.672Z,101830.50
2024-05-09T16:39:00.371Z,101838.75
2024-05-09T16:41:03.279Z,101841.44
2024-05-09T16:43:08.391Z,101838.66
2024-05-09T16:45:12.279Z,101846.00
2024-05-09T16:47:16.875Z,101840.25
2024-05-09T16:49:19.019Z,101819.22
2024-05-09T16:51:23.461Z,101807.94
2024-05-09T16:53:28.084Z,101825.22
2024-05-09T16:55:33.084Z,101840.28
2024-05-09T16:57:35.119Z,101841.06
2024-05-09T16:59:39.627Z,101843.34
2024-05-09T17:01:41.520Z,101835.66
2024-05-09T17:03:46.333Z,101846.41
2024-05-09T17:05:50.402Z,101830.53
2024-05-09T17:07:55.072Z,101822.09
2024-05-09T17:09:59.677Z,101846.94
2024-05-09T17:12:05.663Z,101829.69
2024-05-09T17:14:07.500Z,101844.03
2024-05-09T17:16:13.488Z,101842.03
2024-05-09T17:18:15.849Z,101835.28
2024-05-09T17:20:29.363Z,101825.22
2024-05-09T17:22:35.704Z,101840.06
2024-05-09T17:24:40.450Z,101831.50
2024-05-09T17:26:46.847Z,101835.66
2024-05-09T17:28:51.377Z,101817.50
2024-05-09T17:30:55.625Z,101828.06
2024-05-09T17:33:00.670Z,101830.50
2024-05-09T17:35:05.568Z,101822.63
2024-05-09T17:37:10.226Z,101835.56
2024-05-09T17:39:12.717Z,101821.19
2024-05-09T17:41:14.814Z,101837.59
2024-05-09T17:43:22.436Z,101830.56
2024-05-09T17:45:24.559Z,101837.59
2024-05-09T17:47:29.293Z,101830.00
2024-05-09T17:49:31.308Z,101834.16
2024-05-09T17:51:35.947Z,101816.50
2024-05-09T17:53:39.982Z,101836.91
2024-05-09T17:55:44.908Z,101828.97
2024-05-09T17:57:46.806Z,101807.66
2024-05-09T17:59:54.011Z,101831.25
2024-05-09T18:01:55.960Z,101829.44
2024-05-09T18:04:00.728Z,101830.53
2024-05-09T18:06:02.695Z,101824.25
2024-05-09T18:08:08.359Z,101832.50
2024-05-09T18:10:16.032Z,101817.09
2024-05-09T18:12:26.788Z,101837.88
2024-05-09T18:14:29.298Z,101808.06
2024-05-09T18:16:36.640Z,101837.91
2024-05-09T18:18:38.629Z,101846.44
2024-05-09T18:20:45.668Z,101845.28
2024-05-09T18:22:48.192Z,101854.94
2024-05-09T18:24:53.312Z,101837.63
2024-05-09T18:26:55.301Z,101844.50
2024-05-09T18:28:59.790Z,101844.66
2024-05-09T18:31:01.656Z,101855.19
2024-05-09T18:33:09.794Z,101825.81
2024-05-09T18:35:12.214Z,101848.69
2024-05-09T18:37:16.927Z,101846.09
2024-05-09T18:39:19.162Z,101845.34
2024-05-09T18:41:23.542Z,101851.31
2024-05-09T18:43:31.148Z,101850.81
2024-05-09T18:45:38.124Z,101849.31
2024-05-09T18:47:43.389Z,101839.31
2024-05-09T18:49:47.858Z,101853.34
2024-05-09T18:51:52.653Z,101840.53
2024-05-09T18:53:55.205Z,101856.72
2024-05-09T18:55:59.662Z,101857.16
2024-05-09T18:58:01.605Z,101869.81
2024-05-09T19:00:08.725Z,101862.22
2024-05-09T19:02:13.025Z,101866.94
2024-05-09T19:04:18.983Z,101857.81
2024-05-09T19:06:24.846Z,101875.19
2024-05-09T19:08:29.775Z,101871.53
2024-05-09T19:10:34.666Z,101870.16
2024-05-09T19:12:41.419Z,101872.91
2024-05-09T19:14:43.354Z,101859.06
2024-05-09T19:16:47.849Z,101875.81
2024-05-09T19:18:51.349Z,101879.16
2024-05-09T19:20:58.267Z,101874.47
2024-05-09T19:23:02.894Z,101882.53
2024-05-09T19:25:08.234Z,101878.72
2024-05-09T19:27:10.458Z,101863.94
2024-05-09T19:29:14.906Z,101877.00
2024-05-09T19:31:16.786Z,101887.97
2024-05-09T19:33:21.228Z,101870.00
2024-05-09T19:35:23.102Z,101879.00
2024-05-09T19:37:28.740Z,101882.81
2024-05-09T19:39:33.217Z,101877.63
2024-05-09T19:41:37.935Z,101839.59
2024-05-09T19:43:39.932Z,101883.69
2024-05-09T19:45:44.785Z,101878.22
2024-05-09T19:47:47.040Z,101867.97
2024-05-09T19:49:51.574Z,101873.31
2024-05-09T19:51:53.493Z,101885.34
2024-05-09T19:53:55.330Z,101880.28
2024-05-09T19:56:02.452Z,101888.22
2024-05-09T19:58:06.973Z,101888.81
2024-05-09T20:00:21.484Z,101881.00
2024-05-09T20:02:24.334Z,101895.75
2024-05-09T20:04:29.282Z,101878.03
2024-05-09T20:06:31.385Z,101900.78
2024-05-09T20:08:35.866Z,101890.22
2024-05-09T20:10:38.059Z,101885.44
2024-05-09T20:12:45.254Z,101900.53
2024-05-09T20:14:47.116Z,101899.72
2024-05-09T20:16:52.033Z,101882.00
2024-05-09T20:18:54.093Z,101890.50
2024-05-09T20:21:00.066Z,101894.28
2024-05-09T20:23:01.935Z,101893.22
2024-05-09T20:25:07.138Z,101895.41
2024-05-09T20:27:08.984Z,101902.81
2024-05-09T20:29:16.179Z,101902.06
2024-05-09T20:31:20.607Z,101895.50
2024-05-09T20:33:22.560Z,101901.28
2024-05-09T20:35:27.335Z,101879.56
2024-05-09T20:37:29.250Z,101882.69
2024-05-09T20:39:33.662Z,101881.41
2024-05-09T20:41:41.150Z,101907.63
2024-05-09T20:43:45.922Z,101874.31
2024-05-09T20:45:51.819Z,101892.03
2024-05-09T20:47:57.633Z,101872.25
2024-05-09T20:49:59.815Z,101880.34
2024-05-09T20:52:04.614Z,101893.03
2024-05-09T20:54:06.457Z,101889.63
2024-05-09T20:56:11.069Z,101894.00
2024-05-09T20:58:13.430Z,101896.75
2024-05-09T21:00:19.429Z,101901.34
2024-05-09T21:02:30.810Z,101885.09
2024-05-09T21:04:35.977Z,101888.69
2024-05-09T21:06:37.937Z,101899.19
2024-05-09T21:08:42.382Z,101890.66
2024-05-09T21:10:44.645Z,101904.63
2024-05-09T21:12:46.548Z,101905.50
2024-05-09T21:14:51.003Z,101890.00
2024-05-09T21:16:53.193Z,101902.06
2024-05-09T21:19:00.434Z,101901.28
2024-05-09T21:21:02.279Z,101897.69
2024-05-09T21:23:07.204Z,101899.69
2024-05-09T21:25:09.149Z,101906.78
2024-05-09T21:27:13.935Z,101905.00
2024-05-09T21:29:16.040Z,101901.41
2024-05-09T21:31:20.481Z,101898.03
2024-05-09T21:33:22.383Z,101899.91
2024-05-09T21:35:32.218Z,101904.72
2024-05-09T21:37:34.113Z,101898.25
2024-05-09T21:39:39.260Z,101894.63
2024-05-09T21:41:41.086Z,101904.56
2024-05-09T21:43:45.523Z,101898.25
2024-05-09T21:45:47.462Z,101874.19
2024-05-09T21:47:52.081Z,101890.69
2024-05-09T21:49:54.096Z,101872.78
2024-05-09T21:52:01.171Z,101876.78
2024-05-09T21:54:03.001Z,101890.56
2024-05-09T21:56:09.361Z,101886.84
2024-05-09T21:58:11.881Z,101868.28
2024-05-09T22:00:28.474Z,101884.66
2024-05-09T22:02:36.996Z,101887.63
2024-05-09T22:04:41.798Z,101893.19
2024-05-09T22:06:43.689Z,101875.84
2024-05-09T22:08:51.073Z,101879.31
2024-05-09T22:10:52.957Z,101887.94
2024-05-09T22:12:57.530Z,101864.88
2024-05-09T22:14:59.370Z,101864.97
2024-05-09T22:17:04.241Z,101884.66
2024-05-09T22:19:06.327Z,101887.38
2024-05-09T22:21:12.025Z,101880.66
2024-05-09T22:23:14.895Z,101877.38
2024-05-09T22:25:22.429Z,101871.94
2024-05-09T22:27:24.672Z,101882.41
2024-05-09T22:29:29.738Z,101874.19
2024-05-09T22:31:31.628Z,101877.91
2024-05-09T22:33:36.610Z,101852.91
2024-05-09T22:35:38.727Z,101898.19
2024-05-09T22:37:43.484Z,101894.28
2024-05-09T22:39:45.465Z,101878.63
2024-05-09T22:41:53.059Z,101889.34
2024-05-09T22:43:54.869Z,101890.00
2024-05-09T22:45:59.749Z,101868.47
2024-05-09T22:48:01.995Z,101892.22
2024-05-09T22:50:10.727Z,101868.69
2024-05-09T22:52:14.868Z,101869.31
2024-05-09T22:54:19.720Z,101876.66
2024-05-09T22:56:26.564Z,101901.69
2024-05-09T22:58:36.572Z,101886.53
2024-05-09T23:00:38.664Z,101895.56
2024-05-09T23:02:45.784Z,101895.72
2024-05-09T23:04:48.055Z,101887.94
2024-05-09T23:06:54.050Z,101855.03
2024-05-09T23:08:55.840Z,101876.94
2024-05-09T23:11:00.660Z,101868.50
2024-05-09T23:13:03.220Z,101884.19
2024-05-09T23:15:11.025Z,101890.84
2024-05-09T23:17:13.187Z,101874.31
2024-05-09T23:19:17.736Z,101877.38
2024-05-09T23:21:19.504Z,101872.09
2024-05-09T23:23:23.909Z,101872.94
2024-05-09T23:25:25.777Z,101879.41
2024-05-09T23:27:30.458Z,101881.81
2024-05-09T23:29:32.527Z,101874.81
2024-05-09T23:31:41.479Z,101878.41
2024-05-09T23:33:45.796Z,101869.56
2024-05-09T23:35:50.371Z,101871.88
2024-05-09T23:37:52.231Z,101868.03
2024-05-09T23:39:56.714Z,101866.06
2024-05-09T23:41:58.504Z,101866.41
2024-05-09T23:44:05.476Z,101868.97
2024-05-09T23:46:07.327Z,101859.19
2024-05-09T23:48:14.451Z,101865.06
2024-05-09T23:50:20.854Z,101861.97
2024-05-09T23:52:31.165Z,101870.25
2024-05-09T23:54:33.052Z,101871.88